createdAt,value
2023-04-22T00:01:30.397Z,11.60
2023-04-22T00:03:57.562Z,11.50
2023-04-22T00:06:24.571Z,11.40
2023-04-22T00:08:51.447Z,11.20
2023-04-22T00:11:18.400Z,11.20
2023-04-22T00:13:45.363Z,11.10
2023-04-22T00:16:12.329Z,11.10
2023-04-22T00:18:39.242Z,11.10
2023-04-22T00:21:07.904Z,11.10
2023-04-22T00:23:34.869Z,11.10
2023-04-22T00:26:02.207Z,11.10
2023-04-22T00:28:29.379Z,11.00
2023-04-22T00:30:56.208Z,11.00
2023-04-22T00:33:23.073Z,10.90
2023-04-22T00:35:50.065Z,10.90
2023-04-22T00:38:16.996Z,10.90
2023-04-22T00:40:43.947Z,10.80
2023-04-22T00:43:11.714Z,10.70
2023-04-22T00:45:39.539Z,10.70
2023-04-22T00:48:07.043Z,10.60
2023-04-22T00:50:33.981Z,10.70
2023-04-22T00:53:01.023Z,10.50
2023-04-22T00:55:28.214Z,10.40
2023-04-22T00:57:59.508Z,10.30
2023-04-22T01:00:28.057Z,10.20
2023-04-22T01:02:55.999Z,10.20
2023-04-22T01:05:24.996Z,10.10
2023-04-22T01:07:51.963Z,10.00
2023-04-22T01:10:19.832Z,9.90
2023-04-22T01:12:46.603Z,9.90
2023-04-22T01:15:13.625Z,10.00
2023-04-22T01:17:40.554Z,10.00
2023-04-22T01:20:10.551Z,10.10
2023-04-22T01:22:42.595Z,10.10
2023-04-22T01:25:11.333Z,10.10
2023-04-22T01:27:40.267Z,10.10
2023-04-22T01:30:08.402Z,10.00
2023-04-22T01:32:36.215Z,10.20
2023-04-22T01:35:03.394Z,10.20
2023-04-22T01:37:31.005Z,10.20
2023-04-22T01:39:59.338Z,10.20
2023-04-22T01:42:26.447Z,10.30
2023-04-22T01:44:53.302Z,10.30
2023-04-22T01:47:20.125Z,10.30
2023-04-22T01:49:47.279Z,10.30
2023-04-22T01:52:14.300Z,10.30
2023-04-22T01:54:41.410Z,10.30
2023-04-22T01:57:14.216Z,10.30
2023-04-22T01:59:41.712Z,10.30
2023-04-22T02:02:08.861Z,10.30
2023-04-22T02:04:35.757Z,10.30
2023-04-22T02:07:02.571Z,10.30
2023-04-22T02:09:29.362Z,10.30
2023-04-22T02:11:56.106Z,10.30
2023-04-22T02:14:23.027Z,10.20
2023-04-22T02:16:49.846Z,10.20
2023-04-22T02:19:16.748Z,10.10
2023-04-22T02:21:43.770Z,10.10
2023-04-22T02:24:10.879Z,9.90
2023-04-22T02:26:37.861Z,10.00
2023-04-22T02:29:04.790Z,10.00
2023-04-22T02:31:31.652Z,10.00
2023-04-22T02:33:58.491Z,9.90
2023-04-22T02:36:25.298Z,9.80
2023-04-22T02:38:52.092Z,9.80
2023-04-22T02:41:18.892Z,9.70
2023-04-22T02:43:46.235Z,9.70
2023-04-22T02:46:16.145Z,9.60
2023-04-22T02:48:43.493Z,9.70
2023-04-22T02:51:10.824Z,9.70
2023-04-22T02:53:37.801Z,9.80
2023-04-22T02:56:05.624Z,9.70
2023-04-22T02:58:32.551Z,9.70
2023-04-22T03:00:59.529Z,9.60
2023-04-22T03:03:27.021Z,9.60
2023-04-22T03:05:54.014Z,9.60
2023-04-22T03:08:22.544Z,9.50
2023-04-22T03:10:49.387Z,9.50
2023-04-22T03:13:19.168Z,9.40
2023-04-22T03:15:45.968Z,9.40
2023-04-22T03:18:12.918Z,9.30
2023-04-22T03:20:39.640Z,9.20
2023-04-22T03:23:07.732Z,9.20
2023-04-22T03:25:36.179Z,9.30
2023-04-22T03:28:04.110Z,9.10
2023-04-22T03:30:31.043Z,9.10
2023-04-22T03:32:58.557Z,9.10
2023-04-22T03:35:25.384Z,9.10
2023-04-22T03:37:52.302Z,9.00
2023-04-22T03:40:19.233Z,9.10
2023-04-22T03:42:46.008Z,9.00
2023-04-22T03:45:12.821Z,9.00
2023-04-22T03:47:39.662Z,9.00
2023-04-22T03:50:07.010Z,9.00
2023-04-22T03:52:33.994Z,9.00
2023-04-22T03:55:00.924Z,9.00
2023-04-22T03:57:27.804Z,9.10
2023-04-22T03:59:54.590Z,9.20
2023-04-22T04:02:21.509Z,9.20
2023-04-22T04:04:48.617Z,9.20
2023-04-22T04:07:16.181Z,9.20
2023-04-22T04:09:43.061Z,9.30
2023-04-22T04:12:09.927Z,9.50
2023-04-22T04:14:39.185Z,9.40
2023-04-22T04:17:09.614Z,9.40
2023-04-22T04:19:38.097Z,9.50
2023-04-22T04:22:05.499Z,9.60
2023-04-22T04:24:32.290Z,9.70
2023-04-22T04:26:59.245Z,9.70
2023-04-22T04:29:27.060Z,9.80
2023-04-22T04:31:53.860Z,9.90
2023-04-22T04:34:20.888Z,9.90
2023-04-22T04:36:47.686Z,9.90
2023-04-22T04:39:17.895Z,10.00
2023-04-22T04:41:45.184Z,10.10
2023-04-22T04:44:12.199Z,10.00
2023-04-22T04:46:39.531Z,10.00
2023-04-22T04:49:15.124Z,10.00
2023-04-22T04:51:41.981Z,10.00
2023-04-22T04:54:08.797Z,10.00
2023-04-22T04:56:35.933Z,10.00
2023-04-22T04:59:02.813Z,10.10
2023-04-22T05:01:29.760Z,10.10
2023-04-22T05:03:56.955Z,10.20
2023-04-22T05:06:24.040Z,10.30
2023-04-22T05:08:50.845Z,10.40
2023-04-22T05:11:17.735Z,10.60
2023-04-22T05:13:44.681Z,10.60
2023-04-22T05:16:11.780Z,10.90
2023-04-22T05:18:40.653Z,11.00
2023-04-22T05:21:07.759Z,11.20
2023-04-22T05:23:34.751Z,11.50
2023-04-22T05:26:02.036Z,11.90
2023-04-22T05:28:28.912Z,12.50
2023-04-22T05:30:55.725Z,12.60
2023-04-22T05:33:22.538Z,13.00
2023-04-22T05:35:49.465Z,13.30
2023-04-22T05:38:16.299Z,13.40
2023-04-22T05:40:43.063Z,13.50
2023-04-22T05:43:09.940Z,13.60
2023-04-22T05:45:36.758Z,13.80
2023-04-22T05:48:03.928Z,14.10
2023-04-22T05:50:30.826Z,14.40
2023-04-22T05:52:57.737Z,14.70
2023-04-22T05:55:24.678Z,15.00
2023-04-22T05:57:51.640Z,15.10
2023-04-22T06:00:18.903Z,15.10
2023-04-22T06:02:45.927Z,15.10
2023-04-22T06:05:13.184Z,15.10
2023-04-22T06:07:40.675Z,15.10
2023-04-22T06:10:08.639Z,15.10
2023-04-22T06:12:35.774Z,15.10
2023-04-22T06:15:02.810Z,15.20
2023-04-22T06:17:29.690Z,15.30
2023-04-22T06:19:56.495Z,15.40
2023-04-22T06:22:23.348Z,15.50
2023-04-22T06:24:50.145Z,15.70
2023-04-22T06:27:17.002Z,15.70
2023-04-22T06:29:43.949Z,15.90
2023-04-22T06:32:10.805Z,16.20
2023-04-22T06:34:38.741Z,16.50
2023-04-22T06:37:06.240Z,16.90
2023-04-22T06:39:33.064Z,17.10
2023-04-22T06:42:01.517Z,17.20
2023-04-22T06:44:29.877Z,17.40
2023-04-22T06:46:58.232Z,17.50
2023-04-22T06:49:26.079Z,17.60
2023-04-22T06:51:52.915Z,17.80
2023-04-22T06:54:19.796Z,17.80
2023-04-22T06:56:46.766Z,18.00
2023-04-22T06:59:13.703Z,18.10
2023-04-22T07:01:40.954Z,18.30
2023-04-22T07:04:08.184Z,18.40
2023-04-22T07:06:35.038Z,18.50
2023-04-22T07:09:01.947Z,18.50
2023-04-22T07:11:28.872Z,18.70
2023-04-22T07:13:56.741Z,18.80
2023-04-22T07:16:23.889Z,18.70
2023-04-22T07:18:50.886Z,18.70
2023-04-22T07:21:17.736Z,18.90
2023-04-22T07:23:44.523Z,19.10
2023-04-22T07:26:11.514Z,19.10
2023-04-22T07:28:38.418Z,19.20
2023-04-22T07:31:08.730Z,19.20
2023-04-22T07:33:35.765Z,19.20
2023-04-22T07:36:02.688Z,18.90
2023-04-22T07:38:29.610Z,18.80
2023-04-22T07:40:56.478Z,18.80
2023-04-22T07:43:23.265Z,18.80
2023-04-22T07:45:50.601Z,19.00
2023-04-22T07:48:17.846Z,19.10
2023-04-22T07:50:44.771Z,19.20
2023-04-22T07:53:11.645Z,19.40
2023-04-22T07:55:38.590Z,19.90
2023-04-22T07:58:06.700Z,20.20
2023-04-22T08:00:35.371Z,20.70
2023-04-22T08:03:03.674Z,21.00
2023-04-22T08:05:31.004Z,21.40
2023-04-22T08:07:57.826Z,21.80
2023-04-22T08:10:24.736Z,22.00
2023-04-22T08:12:51.597Z,22.10
2023-04-22T08:15:18.733Z,22.40
2023-04-22T08:17:46.002Z,22.80
2023-04-22T08:20:15.647Z,22.70
2023-04-22T08:22:45.549Z,22.60
2023-04-22T08:25:12.583Z,22.60
2023-04-22T08:27:39.632Z,22.80
2023-04-22T08:30:07.468Z,22.90
2023-04-22T08:32:34.420Z,22.90
2023-04-22T08:35:04.365Z,23.10
2023-04-22T08:37:32.044Z,23.40
2023-04-22T08:39:58.863Z,23.40
2023-04-22T08:42:27.276Z,23.00
2023-04-22T08:44:57.589Z,23.20
2023-04-22T08:47:26.616Z,23.70
2023-04-22T08:49:59.957Z,23.90
2023-04-22T08:52:27.403Z,23.90
2023-04-22T08:54:57.679Z,23.90
2023-04-22T08:57:24.735Z,23.80
2023-04-22T08:59:52.094Z,23.60
2023-04-22T09:02:24.089Z,23.80
2023-04-22T09:04:53.656Z,23.60
2023-04-22T09:07:30.123Z,23.50
2023-04-22T09:09:57.992Z,23.60
2023-04-22T09:12:28.613Z,23.20
2023-04-22T09:14:56.416Z,22.90
2023-04-22T09:17:35.399Z,23.00
2023-04-22T09:20:07.771Z,23.10
2023-04-22T09:22:41.190Z,23.30
2023-04-22T09:25:16.952Z,23.50
2023-04-22T09:28:01.480Z,23.80
2023-04-22T09:30:35.289Z,24.10
2023-04-22T09:33:04.788Z,24.60
2023-04-22T09:35:39.392Z,25.10
2023-04-22T09:38:08.361Z,24.80
2023-04-22T09:40:36.400Z,24.80
2023-04-22T09:43:08.553Z,24.90
2023-04-22T09:45:43.304Z,25.10
2023-04-22T09:48:20.300Z,25.40
2023-04-22T09:50:49.881Z,25.70
2023-04-22T09:53:19.174Z,25.80
2023-04-22T09:55:49.289Z,25.20
2023-04-22T09:58:18.892Z,25.10
2023-04-22T10:00:49.684Z,25.20
2023-04-22T10:03:17.558Z,25.10
2023-04-22T10:05:46.291Z,25.20
2023-04-22T10:08:14.983Z,25.00
2023-04-22T10:10:42.601Z,24.50
2023-04-22T10:13:09.626Z,24.50
2023-04-22T10:15:38.909Z,24.40
2023-04-22T10:18:22.337Z,24.00
2023-04-22T10:20:50.207Z,24.10
2023-04-22T10:23:22.962Z,24.10
2023-04-22T10:25:56.903Z,24.00
2023-04-22T10:28:27.650Z,24.30
2023-04-22T10:30:54.685Z,24.40
2023-04-22T10:33:21.795Z,24.50
2023-04-22T10:36:10.767Z,24.50
2023-04-22T10:38:39.372Z,24.30
2023-04-22T10:41:07.321Z,24.60
2023-04-22T10:43:44.589Z,24.50
2023-04-22T10:46:42.518Z,24.50
2023-04-22T10:49:11.403Z,24.10
2023-04-22T10:51:45.437Z,24.30
2023-04-22T10:54:30.617Z,24.50
2023-04-22T10:57:03.034Z,24.40
2023-04-22T10:59:31.321Z,24.50
2023-04-22T11:02:07.582Z,24.70
2023-04-22T11:04:34.829Z,24.60
2023-04-22T11:07:22.850Z,24.20
2023-04-22T11:10:30.194Z,23.90
2023-04-22T11:12:58.164Z,23.90
2023-04-22T11:15:30.303Z,23.90
2023-04-22T11:18:56.643Z,24.10
2023-04-22T11:21:24.031Z,24.10
2023-04-22T11:23:52.953Z,24.20
2023-04-22T11:26:34.121Z,24.10
2023-04-22T11:29:01.231Z,24.10
2023-04-22T11:31:28.197Z,24.30
2023-04-22T11:33:59.631Z,24.30
2023-04-22T11:36:27.707Z,24.40
2023-04-22T11:38:56.362Z,24.40
2023-04-22T11:41:24.200Z,24.20
2023-04-22T11:43:51.301Z,24.10
2023-04-22T11:46:29.744Z,24.00
2023-04-22T11:49:12.526Z,24.00
2023-04-22T11:51:53.201Z,23.90
2023-04-22T11:54:37.704Z,24.00
2023-04-22T11:57:06.425Z,24.10
2023-04-22T11:59:33.384Z,24.40
2023-04-22T12:02:00.595Z,24.60
2023-04-22T12:04:27.467Z,24.80
2023-04-22T12:06:54.425Z,24.90
2023-04-22T12:09:25.770Z,24.80
2023-04-22T12:11:52.746Z,24.90
2023-04-22T12:14:19.692Z,24.90
2023-04-22T12:16:46.575Z,24.80
2023-04-22T12:19:13.501Z,24.80
2023-04-22T12:21:42.247Z,24.80
2023-04-22T12:24:11.366Z,24.70
2023-04-22T12:26:38.371Z,24.60
2023-04-22T12:29:05.290Z,24.60
2023-04-22T12:31:35.658Z,24.60
2023-04-22T12:34:02.895Z,24.80
2023-04-22T12:36:30.513Z,24.80
2023-04-22T12:38:57.443Z,24.70
2023-04-22T12:41:24.402Z,24.60
2023-04-22T12:43:52.676Z,24.60
2023-04-22T12:46:19.902Z,24.70
2023-04-22T12:48:46.852Z,24.60
2023-04-22T12:51:13.772Z,24.40
2023-04-22T12:53:40.792Z,24.30
2023-04-22T12:56:07.799Z,24.30
2023-04-22T12:58:34.648Z,24.10
2023-04-22T13:01:01.550Z,23.80
2023-04-22T13:03:28.807Z,23.60
2023-04-22T13:05:56.055Z,23.50
2023-04-22T13:08:23.666Z,23.90
2023-04-22T13:10:50.719Z,24.20
2023-04-22T13:13:19.314Z,24.20
2023-04-22T13:15:48.043Z,24.30
2023-04-22T13:18:16.936Z,24.30
2023-04-22T13:20:44.899Z,24.40
2023-04-22T13:23:13.325Z,24.40
2023-04-22T13:25:40.383Z,24.20
2023-04-22T13:28:07.237Z,24.10
2023-04-22T13:30:37.471Z,24.10
2023-04-22T13:33:04.452Z,24.10
2023-04-22T13:35:31.563Z,24.00
2023-04-22T13:37:58.887Z,23.90
2023-04-22T13:40:27.359Z,23.80
2023-04-22T13:42:54.906Z,23.70
2023-04-22T13:45:22.237Z,23.60
2023-04-22T13:47:49.188Z,23.60
2023-04-22T13:50:20.436Z,23.70
2023-04-22T13:52:47.368Z,23.60
2023-04-22T13:55:14.265Z,23.50
2023-04-22T13:57:41.123Z,23.40
2023-04-22T14:00:09.521Z,23.40
2023-04-22T14:02:37.281Z,23.30
2023-04-22T14:05:05.871Z,23.10
2023-04-22T14:07:32.884Z,23.00
2023-04-22T14:10:00.506Z,23.00
2023-04-22T14:12:27.403Z,22.90
2023-04-22T14:14:54.236Z,23.00
2023-04-22T14:17:24.412Z,23.00
2023-04-22T14:19:51.189Z,23.10
2023-04-22T14:22:21.106Z,23.20
2023-04-22T14:24:51.394Z,23.30
2023-04-22T14:27:18.230Z,23.30
2023-04-22T14:29:46.195Z,23.30
2023-04-22T14:32:13.020Z,23.30
2023-04-22T14:34:39.906Z,23.20
2023-04-22T14:37:07.528Z,23.10
2023-04-22T14:39:37.798Z,23.20
2023-04-22T14:42:05.333Z,23.20
2023-04-22T14:44:32.587Z,23.20
2023-04-22T14:47:00.049Z,23.20
2023-04-22T14:49:27.000Z,23.20
2023-04-22T14:51:53.773Z,23.20
2023-04-22T14:54:20.621Z,23.20
2023-04-22T14:56:47.980Z,23.10
2023-04-22T14:59:14.867Z,23.10
2023-04-22T15:01:43.221Z,23.00
2023-04-22T15:04:12.821Z,23.00
2023-04-22T15:06:39.781Z,22.90
2023-04-22T15:09:06.911Z,22.90
2023-04-22T15:11:34.174Z,22.80
2023-04-22T15:14:01.020Z,22.80
2023-04-22T15:16:28.019Z,22.90
2023-04-22T15:18:55.357Z,22.90
2023-04-22T15:21:23.057Z,22.90
2023-04-22T15:23:49.830Z,22.80
2023-04-22T15:26:17.003Z,22.80
2023-04-22T15:28:43.925Z,22.80
2023-04-22T15:31:10.836Z,22.80
2023-04-22T15:33:38.852Z,22.70
2023-04-22T15:36:07.014Z,22.60
2023-04-22T15:38:33.964Z,22.60
2023-04-22T15:41:01.020Z,22.60
2023-04-22T15:43:28.061Z,22.60
2023-04-22T15:45:58.518Z,22.60
2023-04-22T15:48:25.732Z,22.40
2023-04-22T15:50:52.679Z,22.60
2023-04-22T15:53:20.182Z,22.70
2023-04-22T15:55:48.551Z,22.80
2023-04-22T15:58:16.197Z,22.90
2023-04-22T16:00:43.282Z,23.00
2023-04-22T16:03:10.635Z,23.00
2023-04-22T16:05:37.980Z,23.00
2023-04-22T16:08:04.839Z,23.00
2023-04-22T16:10:31.934Z,23.00
2023-04-22T16:12:58.775Z,23.10
2023-04-22T16:15:26.306Z,23.00
2023-04-22T16:17:53.337Z,23.10
2023-04-22T16:20:26.624Z,23.10
2023-04-22T16:22:53.439Z,23.10
2023-04-22T16:25:21.187Z,23.10
2023-04-22T16:27:48.809Z,23.10
2023-04-22T16:30:16.299Z,23.00
2023-04-22T16:32:43.368Z,22.80
2023-04-22T16:35:11.215Z,22.80
2023-04-22T16:37:38.377Z,22.70
2023-04-22T16:40:06.818Z,22.70
2023-04-22T16:42:36.169Z,22.60
2023-04-22T16:45:07.939Z,22.60
2023-04-22T16:47:34.757Z,22.50
2023-04-22T16:50:01.796Z,22.50
2023-04-22T16:52:28.651Z,22.40
2023-04-22T16:54:55.748Z,22.40
2023-04-22T16:57:26.191Z,22.20
2023-04-22T16:59:53.354Z,22.10
2023-04-22T17:02:20.484Z,21.90
2023-04-22T17:04:47.411Z,21.80
2023-04-22T17:07:14.299Z,21.80
2023-04-22T17:09:46.342Z,21.70
2023-04-22T17:12:13.431Z,21.60
2023-04-22T17:14:40.341Z,21.60
2023-04-22T17:17:07.113Z,21.40
2023-04-22T17:19:34.031Z,21.20
2023-04-22T17:22:01.942Z,20.80
2023-04-22T17:24:28.844Z,20.30
2023-04-22T17:26:55.784Z,19.90
2023-04-22T17:29:23.412Z,19.50
2023-04-22T17:31:51.039Z,19.30
2023-04-22T17:34:17.985Z,19.10
2023-04-22T17:36:45.546Z,18.90
2023-04-22T17:39:12.389Z,18.80
2023-04-22T17:41:39.272Z,18.60
2023-04-22T17:44:08.939Z,18.50
2023-04-22T17:46:35.937Z,18.40
2023-04-22T17:49:02.848Z,18.30
2023-04-22T17:51:29.742Z,18.20
2023-04-22T17:53:57.208Z,18.10
2023-04-22T17:56:25.184Z,17.90
2023-04-22T17:58:52.114Z,17.80
2023-04-22T18:01:19.159Z,17.70
2023-04-22T18:03:46.266Z,17.60
2023-04-22T18:06:13.315Z,17.50
2023-04-22T18:08:40.207Z,17.40
2023-04-22T18:11:07.097Z,17.30
2023-04-22T18:13:33.933Z,17.30
2023-04-22T18:16:01.076Z,17.20
2023-04-22T18:18:28.196Z,17.20
2023-04-22T18:20:55.251Z,17.10
2023-04-22T18:23:22.238Z,17.10
2023-04-22T18:25:49.569Z,17.10
2023-04-22T18:28:16.411Z,17.00
2023-04-22T18:30:44.331Z,17.00
2023-04-22T18:33:11.309Z,16.90
2023-04-22T18:35:38.096Z,16.90
2023-04-22T18:38:05.157Z,16.90
2023-04-22T18:40:32.540Z,16.90
2023-04-22T18:42:59.513Z,16.80
2023-04-22T18:45:26.461Z,16.80
2023-04-22T18:47:53.349Z,16.80
2023-04-22T18:50:21.061Z,16.70
2023-04-22T18:52:48.531Z,16.70
2023-04-22T18:55:15.914Z,16.60
2023-04-22T18:57:43.658Z,16.60
2023-04-22T19:00:13.217Z,16.60
2023-04-22T19:02:42.385Z,16.60
2023-04-22T19:05:10.386Z,16.60
2023-04-22T19:07:40.839Z,16.60
2023-04-22T19:10:09.656Z,16.60
2023-04-22T19:12:37.314Z,16.60
2023-04-22T19:15:04.974Z,16.60
2023-04-22T19:17:32.306Z,16.50
2023-04-22T19:19:59.542Z,16.60
2023-04-22T19:22:27.179Z,16.60
2023-04-22T19:24:54.405Z,16.50
2023-04-22T19:27:21.609Z,16.50
2023-04-22T19:29:51.418Z,16.50
2023-04-22T19:32:18.594Z,16.50
2023-04-22T19:34:45.801Z,16.50
2023-04-22T19:37:12.812Z,16.50
2023-04-22T19:39:39.817Z,16.50
2023-04-22T19:42:07.240Z,16.40
2023-04-22T19:44:34.453Z,16.40
2023-04-22T19:47:01.605Z,16.40
2023-04-22T19:49:31.199Z,16.30
2023-04-22T19:51:58.705Z,16.20
2023-04-22T19:54:27.918Z,16.30
2023-04-22T19:56:56.642Z,16.20
2023-04-22T19:59:23.794Z,16.20
2023-04-22T20:01:50.890Z,16.20
2023-04-22T20:04:18.329Z,16.20
2023-04-22T20:06:45.992Z,16.20
2023-04-22T20:09:13.621Z,16.20
2023-04-22T20:11:42.429Z,16.20
2023-04-22T20:14:10.306Z,16.20
2023-04-22T20:16:37.969Z,16.10
2023-04-22T20:19:05.080Z,16.20
2023-04-22T20:21:35.958Z,16.10
2023-04-22T20:24:05.937Z,16.10
2023-04-22T20:26:33.452Z,16.10
2023-04-22T20:29:01.413Z,16.10
2023-04-22T20:31:28.508Z,16.00
2023-04-22T20:33:55.719Z,16.10
2023-04-22T20:36:24.218Z,16.00
2023-04-22T20:38:54.887Z,16.00
2023-04-22T20:41:24.719Z,15.90
2023-04-22T20:43:52.185Z,15.90
2023-04-22T20:46:21.450Z,15.90
2023-04-22T20:48:49.809Z,15.90
2023-04-22T20:51:16.807Z,15.80
2023-04-22T20:53:44.200Z,15.70
2023-04-22T20:56:11.268Z,15.60
2023-04-22T20:58:38.257Z,15.60
2023-04-22T21:01:07.677Z,15.50
2023-04-22T21:03:36.604Z,15.50
2023-04-22T21:06:03.875Z,15.50
2023-04-22T21:08:33.083Z,15.40
2023-04-22T21:11:00.637Z,15.30
2023-04-22T21:13:28.979Z,15.20
2023-04-22T21:16:02.438Z,15.20
2023-04-22T21:18:32.665Z,15.10
2023-04-22T21:21:03.370Z,15.00
2023-04-22T21:23:30.879Z,15.00
2023-04-22T21:26:01.220Z,15.00
2023-04-22T21:28:29.292Z,14.90
2023-04-22T21:30:57.049Z,14.90
2023-04-22T21:33:25.552Z,14.80
2023-04-22T21:35:52.601Z,14.80
2023-04-22T21:38:20.067Z,14.80
2023-04-22T21:40:50.287Z,14.70
2023-04-22T21:43:17.331Z,14.70
2023-04-22T21:45:44.155Z,14.70
2023-04-22T21:48:11.154Z,14.60
2023-04-22T21:50:38.151Z,14.60
2023-04-22T21:53:05.466Z,14.50
2023-04-22T21:55:32.410Z,14.50
2023-04-22T21:57:59.937Z,14.50
2023-04-22T22:00:26.906Z,14.50
2023-04-22T22:02:55.135Z,14.50
2023-04-22T22:05:25.109Z,14.50
2023-04-22T22:07:52.981Z,14.50
2023-04-22T22:10:19.885Z,14.40
2023-04-22T22:12:47.447Z,14.40
2023-04-22T22:15:16.309Z,14.40
2023-04-22T22:17:44.297Z,14.40
2023-04-22T22:20:13.393Z,14.40
2023-04-22T22:22:41.895Z,14.40
2023-04-22T22:25:11.075Z,14.40
2023-04-22T22:27:40.824Z,14.40
2023-04-22T22:30:08.826Z,14.30
2023-04-22T22:32:36.554Z,14.40
2023-04-22T22:35:04.245Z,14.40
2023-04-22T22:37:31.395Z,14.40
2023-04-22T22:39:58.385Z,14.40
2023-04-22T22:42:26.576Z,14.40
2023-04-22T22:44:53.429Z,14.30
2023-04-22T22:47:20.293Z,14.40
2023-04-22T22:49:47.457Z,14.40
2023-04-22T22:52:14.361Z,14.30
2023-04-22T22:54:41.859Z,14.40
2023-04-22T22:57:09.113Z,14.40
2023-04-22T22:59:37.200Z,14.40
2023-04-22T23:02:04.410Z,14.40
2023-04-22T23:04:31.534Z,14.40
2023-04-22T23:06:58.592Z,14.40
2023-04-22T23:09:25.546Z,14.40
2023-04-22T23:11:54.659Z,14.50
2023-04-22T23:14:22.695Z,14.50
2023-04-22T23:16:51.015Z,14.50
2023-04-22T23:19:18.196Z,14.50
2023-04-22T23:21:46.156Z,14.50
2023-04-22T23:24:15.329Z,14.50
2023-04-22T23:26:43.249Z,14.50
2023-04-22T23:29:13.590Z,14.50
2023-04-22T23:31:45.220Z,14.40
2023-04-22T23:34:17.884Z,14.20
2023-04-22T23:36:46.084Z,14.10
2023-04-22T23:39:13.128Z,13.90
2023-04-22T23:41:39.928Z,13.70
2023-04-22T23:44:06.748Z,13.60
2023-04-22T23:46:42.287Z,13.50
2023-04-22T23:49:19.605Z,13.50
2023-04-22T23:51:46.603Z,13.30
2023-04-22T23:54:13.495Z,13.40
2023-04-22T23:56:48.340Z,13.30
2023-04-22T23:59:29.712Z,13.20
